sensor_id;sensor_type;location;lat;lon;timestamp;P1;durP1;ratioP1;P2;durP2;ratioP2
44147;SDS011;29810;55.848;37.368;2023-01-29T00:01:52;12.95;;;8.05;;
44147;SDS011;29810;55.848;37.368;2023-01-29T00:04:54;13.23;;;7.85;;
44147;SDS011;29810;55.848;37.368;2023-01-29T00:07:56;9.20;;;6.55;;
44147;SDS011;29810;55.848;37.368;2023-01-29T00:11:01;9.48;;;6.68;;
44147;SDS011;29810;55.848;37.368;2023-01-29T00:17:07;8.35;;;5.50;;
44147;SDS011;29810;55.848;37.368;2023-01-29T00:20:10;7.32;;;5.25;;
44147;SDS011;29810;55.848;37.368;2023-01-29T00:23:12;8.13;;;5.37;;
44147;SDS011;29810;55.848;37.368;2023-01-29T00:26:13;9.32;;;5.25;;
44147;SDS011;29810;55.848;37.368;2023-01-29T00:29:17;7.28;;;4.68;;
44147;SDS011;29810;55.848;37.368;2023-01-29T00:32:18;7.90;;;5.22;;
44147;SDS011;29810;55.848;37.368;2023-01-29T00:35:20;8.90;;;5.28;;
44147;SDS011;29810;55.848;37.368;2023-01-29T00:38:21;7.28;;;4.75;;
44147;SDS011;29810;55.848;37.368;2023-01-29T00:41:27;7.72;;;4.55;;
44147;SDS011;29810;55.848;37.368;2023-01-29T00:44:49;7.68;;;4.85;;
44147;SDS011;29810;55.848;37.368;2023-01-29T00:48:00;6.87;;;4.50;;
44147;SDS011;29810;55.848;37.368;2023-01-29T00:51:02;6.70;;;4.47;;
44147;SDS011;29810;55.848;37.368;2023-01-29T00:54:04;5.65;;;4.07;;
44147;SDS011;29810;55.848;37.368;2023-01-29T00:57:06;6.10;;;4.18;;
44147;SDS011;29810;55.848;37.368;2023-01-29T01:00:10;5.82;;;4.00;;
44147;SDS011;29810;55.848;37.368;2023-01-29T01:03:14;6.30;;;3.90;;
44147;SDS011;29810;55.848;37.368;2023-01-29T01:06:16;5.28;;;3.40;;
44147;SDS011;29810;55.848;37.368;2023-01-29T01:09:18;6.05;;;3.45;;
44147;SDS011;29810;55.848;37.368;2023-01-29T01:12:38;5.32;;;3.20;;
44147;SDS011;29810;55.848;37.368;2023-01-29T01:15:40;5.15;;;3.25;;
44147;SDS011;29810;55.848;37.368;2023-01-29T01:18:41;5.65;;;3.37;;
44147;SDS011;29810;55.848;37.368;2023-01-29T01:21:43;5.35;;;3.45;;
44147;SDS011;29810;55.848;37.368;2023-01-29T01:24:47;5.72;;;3.40;;
44147;SDS011;29810;55.848;37.368;2023-01-29T01:27:51;6.03;;;3.50;;
44147;SDS011;29810;55.848;37.368;2023-01-29T01:30:53;5.57;;;3.33;;
44147;SDS011;29810;55.848;37.368;2023-01-29T01:33:55;5.32;;;3.33;;
44147;SDS011;29810;55.848;37.368;2023-01-29T01:36:57;5.95;;;3.40;;
44147;SDS011;29810;55.848;37.368;2023-01-29T01:39:58;7.12;;;3.90;;
44147;SDS011;29810;55.848;37.368;2023-01-29T01:43:01;4.72;;;3.15;;
44147;SDS011;29810;55.848;37.368;2023-01-29T01:46:02;5.28;;;2.97;;
44147;SDS011;29810;55.848;37.368;2023-01-29T01:52:06;4.97;;;3.35;;
44147;SDS011;29810;55.848;37.368;2023-01-29T01:55:09;5.15;;;3.17;;
44147;SDS011;29810;55.848;37.368;2023-01-29T01:58:15;5.07;;;3.08;;
44147;SDS011;29810;55.848;37.368;2023-01-29T02:01:25;4.35;;;2.78;;
44147;SDS011;29810;55.848;37.368;2023-01-29T02:04:30;4.95;;;3.12;;
44147;SDS011;29810;55.848;37.368;2023-01-29T02:07:50;4.28;;;2.90;;
44147;SDS011;29810;55.848;37.368;2023-01-29T02:11:11;4.85;;;3.20;;
44147;SDS011;29810;55.848;37.368;2023-01-29T02:14:13;3.45;;;2.55;;
44147;SDS011;29810;55.848;37.368;2023-01-29T02:17:17;4.45;;;2.70;;
44147;SDS011;29810;55.848;37.368;2023-01-29T02:20:23;4.70;;;3.00;;
44147;SDS011;29810;55.848;37.368;2023-01-29T02:24:38;4.53;;;2.60;;
44147;SDS011;29810;55.848;37.368;2023-01-29T02:27:23;6.70;;;3.17;;
44147;SDS011;29810;55.848;37.368;2023-01-29T02:30:40;5.20;;;3.08;;
44147;SDS011;29810;55.848;37.368;2023-01-29T02:37:08;5.55;;;3.28;;
44147;SDS011;29810;55.848;37.368;2023-01-29T02:40:15;6.00;;;3.65;;
44147;SDS011;29810;55.848;37.368;2023-01-29T02:47:07;4.95;;;3.08;;
44147;SDS011;29810;55.848;37.368;2023-01-29T02:50:21;5.22;;;3.12;;
44147;SDS011;29810;55.848;37.368;2023-01-29T02:56:37;5.82;;;3.33;;
44147;SDS011;29810;55.848;37.368;2023-01-29T03:02:57;4.68;;;2.97;;
44147;SDS011;29810;55.848;37.368;2023-01-29T03:06:05;4.83;;;3.33;;
44147;SDS011;29810;55.848;37.368;2023-01-29T03:09:13;4.55;;;2.87;;
44147;SDS011;29810;55.848;37.368;2023-01-29T03:12:24;4.47;;;3.08;;
44147;SDS011;29810;55.848;37.368;2023-01-29T03:15:38;4.57;;;3.10;;
44147;SDS011;29810;55.848;37.368;2023-01-29T03:18:50;4.60;;;3.03;;
44147;SDS011;29810;55.848;37.368;2023-01-29T03:21:57;4.72;;;3.10;;
44147;SDS011;29810;55.848;37.368;2023-01-29T03:25:01;4.50;;;2.90;;
44147;SDS011;29810;55.848;37.368;2023-01-29T03:28:24;5.15;;;3.28;;
44147;SDS011;29810;55.848;37.368;2023-01-29T03:31:49;4.30;;;2.70;;
44147;SDS011;29810;55.848;37.368;2023-01-29T03:35:09;5.22;;;3.28;;
44147;SDS011;29810;55.848;37.368;2023-01-29T03:38:13;4.60;;;3.03;;
44147;SDS011;29810;55.848;37.368;2023-01-29T03:41:23;5.68;;;3.62;;
44147;SDS011;29810;55.848;37.368;2023-01-29T03:48:10;6.00;;;3.97;;
44147;SDS011;29810;55.848;37.368;2023-01-29T04:04:55;6.30;;;3.93;;
44147;SDS011;29810;55.848;37.368;2023-01-29T04:08:07;6.10;;;4.00;;
44147;SDS011;29810;55.848;37.368;2023-01-29T04:11:15;6.10;;;3.95;;
44147;SDS011;29810;55.848;37.368;2023-01-29T04:14:19;5.62;;;3.92;;
44147;SDS011;29810;55.848;37.368;2023-01-29T04:17:24;7.95;;;3.72;;
44147;SDS011;29810;55.848;37.368;2023-01-29T04:20:34;6.93;;;4.20;;
44147;SDS011;29810;55.848;37.368;2023-01-29T04:23:36;5.70;;;3.67;;
44147;SDS011;29810;55.848;37.368;2023-01-29T04:39:24;6.65;;;3.95;;
44147;SDS011;29810;55.848;37.368;2023-01-29T04:42:40;6.22;;;4.03;;
44147;SDS011;29810;55.848;37.368;2023-01-29T04:45:53;6.55;;;4.18;;
44147;SDS011;29810;55.848;37.368;2023-01-29T04:49:20;5.75;;;3.65;;
44147;SDS011;29810;55.848;37.368;2023-01-29T04:55:56;6.43;;;4.30;;
44147;SDS011;29810;55.848;37.368;2023-01-29T04:59:03;5.97;;;3.97;;
44147;SDS011;29810;55.848;37.368;2023-01-29T05:02:08;9.98;;;4.10;;
44147;SDS011;29810;55.848;37.368;2023-01-29T05:05:12;6.10;;;3.78;;
44147;SDS011;29810;55.848;37.368;2023-01-29T05:08:18;6.90;;;4.32;;
44147;SDS011;29810;55.848;37.368;2023-01-29T05:11:23;5.90;;;3.87;;
44147;SDS011;29810;55.848;37.368;2023-01-29T05:14:25;4.97;;;3.30;;
44147;SDS011;29810;55.848;37.368;2023-01-29T05:17:30;6.25;;;3.55;;
44147;SDS011;29810;55.848;37.368;2023-01-29T05:20:32;7.12;;;4.05;;
44147;SDS011;29810;55.848;37.368;2023-01-29T05:23:36;6.00;;;4.15;;
44147;SDS011;29810;55.848;37.368;2023-01-29T05:26:38;6.00;;;3.78;;
44147;SDS011;29810;55.848;37.368;2023-01-29T05:29:58;6.43;;;3.85;;
44147;SDS011;29810;55.848;37.368;2023-01-29T05:33:02;6.75;;;4.55;;
44147;SDS011;29810;55.848;37.368;2023-01-29T05:36:04;6.72;;;4.05;;
44147;SDS011;29810;55.848;37.368;2023-01-29T05:39:07;6.07;;;4.07;;
44147;SDS011;29810;55.848;37.368;2023-01-29T05:42:08;6.35;;;4.45;;
44147;SDS011;29810;55.848;37.368;2023-01-29T05:45:10;6.65;;;3.87;;
44147;SDS011;29810;55.848;37.368;2023-01-29T05:48:11;6.50;;;4.30;;
44147;SDS011;29810;55.848;37.368;2023-01-29T05:51:13;6.78;;;4.45;;
44147;SDS011;29810;55.848;37.368;2023-01-29T05:54:17;6.72;;;4.25;;
44147;SDS011;29810;55.848;37.368;2023-01-29T05:57:19;6.72;;;4.70;;
44147;SDS011;29810;55.848;37.368;2023-01-29T06:00:21;6.57;;;4.45;;
44147;SDS011;29810;55.848;37.368;2023-01-29T06:03:23;6.68;;;4.40;;
44147;SDS011;29810;55.848;37.368;2023-01-29T06:06:25;5.62;;;4.10;;
44147;SDS011;29810;55.848;37.368;2023-01-29T06:09:26;9.50;;;4.80;;
44147;SDS011;29810;55.848;37.368;2023-01-29T06:12:28;6.90;;;4.10;;
44147;SDS011;29810;55.848;37.368;2023-01-29T06:15:29;6.55;;;4.32;;
44147;SDS011;29810;55.848;37.368;2023-01-29T06:18:34;8.60;;;4.22;;
44147;SDS011;29810;55.848;37.368;2023-01-29T06:21:36;6.80;;;4.53;;
44147;SDS011;29810;55.848;37.368;2023-01-29T06:24:38;5.78;;;3.90;;
44147;SDS011;29810;55.848;37.368;2023-01-29T06:27:40;5.32;;;3.53;;
44147;SDS011;29810;55.848;37.368;2023-01-29T06:30:41;6.05;;;3.90;;
44147;SDS011;29810;55.848;37.368;2023-01-29T06:33:43;6.22;;;4.18;;
44147;SDS011;29810;55.848;37.368;2023-01-29T06:36:44;6.37;;;3.83;;
44147;SDS011;29810;55.848;37.368;2023-01-29T06:39:46;5.80;;;3.72;;
44147;SDS011;29810;55.848;37.368;2023-01-29T06:42:48;6.60;;;4.18;;
44147;SDS011;29810;55.848;37.368;2023-01-29T06:45:51;7.25;;;4.30;;
44147;SDS011;29810;55.848;37.368;2023-01-29T06:48:56;6.60;;;4.20;;
44147;SDS011;29810;55.848;37.368;2023-01-29T06:51:58;7.62;;;3.85;;
44147;SDS011;29810;55.848;37.368;2023-01-29T06:55:00;8.30;;;4.15;;
44147;SDS011;29810;55.848;37.368;2023-01-29T06:58:05;7.32;;;3.87;;
44147;SDS011;29810;55.848;37.368;2023-01-29T07:01:09;6.05;;;3.80;;
44147;SDS011;29810;55.848;37.368;2023-01-29T07:04:12;6.43;;;3.75;;
44147;SDS011;29810;55.848;37.368;2023-01-29T07:07:13;6.93;;;3.65;;
44147;SDS011;29810;55.848;37.368;2023-01-29T07:10:15;7.95;;;4.05;;
44147;SDS011;29810;55.848;37.368;2023-01-29T07:13:16;5.85;;;3.70;;
44147;SDS011;29810;55.848;37.368;2023-01-29T07:16:18;6.53;;;3.80;;
44147;SDS011;29810;55.848;37.368;2023-01-29T07:19:26;6.65;;;4.00;;
44147;SDS011;29810;55.848;37.368;2023-01-29T07:22:28;7.70;;;3.83;;
44147;SDS011;29810;55.848;37.368;2023-01-29T07:25:29;5.12;;;3.50;;
44147;SDS011;29810;55.848;37.368;2023-01-29T07:28:34;10.52;;;3.58;;
44147;SDS011;29810;55.848;37.368;2023-01-29T07:31:37;5.62;;;3.42;;
44147;SDS011;29810;55.848;37.368;2023-01-29T07:34:39;5.15;;;3.17;;
44147;SDS011;29810;55.848;37.368;2023-01-29T07:37:40;6.53;;;3.10;;
44147;SDS011;29810;55.848;37.368;2023-01-29T07:40:42;4.50;;;3.30;;
44147;SDS011;29810;55.848;37.368;2023-01-29T07:43:43;5.85;;;3.40;;
44147;SDS011;29810;55.848;37.368;2023-01-29T07:46:45;3.97;;;2.60;;
44147;SDS011;29810;55.848;37.368;2023-01-29T07:49:46;6.43;;;2.85;;
44147;SDS011;29810;55.848;37.368;2023-01-29T07:52:48;7.68;;;2.85;;
44147;SDS011;29810;55.848;37.368;2023-01-29T07:55:50;4.32;;;2.28;;
44147;SDS011;29810;55.848;37.368;2023-01-29T07:58:51;4.10;;;2.37;;
44147;SDS011;29810;55.848;37.368;2023-01-29T08:01:53;6.03;;;2.67;;
44147;SDS011;29810;55.848;37.368;2023-01-29T08:04:54;3.60;;;2.12;;
44147;SDS011;29810;55.848;37.368;2023-01-29T08:07:56;3.55;;;2.30;;
44147;SDS011;29810;55.848;37.368;2023-01-29T08:11:02;3.47;;;2.22;;
44147;SDS011;29810;55.848;37.368;2023-01-29T08:14:05;3.67;;;2.55;;
44147;SDS011;29810;55.848;37.368;2023-01-29T08:17:10;4.40;;;2.25;;
44147;SDS011;29810;55.848;37.368;2023-01-29T08:20:13;3.80;;;2.40;;
44147;SDS011;29810;55.848;37.368;2023-01-29T08:23:14;3.83;;;2.37;;
44147;SDS011;29810;55.848;37.368;2023-01-29T08:26:16;4.72;;;2.65;;
44147;SDS011;29810;55.848;37.368;2023-01-29T08:29:18;4.32;;;2.40;;
44147;SDS011;29810;55.848;37.368;2023-01-29T08:32:20;4.35;;;2.40;;
44147;SDS011;29810;55.848;37.368;2023-01-29T08:35:22;3.95;;;2.37;;
44147;SDS011;29810;55.848;37.368;2023-01-29T08:38:24;3.37;;;2.28;;
44147;SDS011;29810;55.848;37.368;2023-01-29T08:41:25;4.18;;;2.60;;
44147;SDS011;29810;55.848;37.368;2023-01-29T08:44:31;4.95;;;2.80;;
44147;SDS011;29810;55.848;37.368;2023-01-29T08:47:32;4.07;;;2.60;;
44147;SDS011;29810;55.848;37.368;2023-01-29T08:50:34;4.25;;;2.60;;
44147;SDS011;29810;55.848;37.368;2023-01-29T08:53:37;3.87;;;2.60;;
44147;SDS011;29810;55.848;37.368;2023-01-29T08:56:38;4.62;;;3.10;;
44147;SDS011;29810;55.848;37.368;2023-01-29T08:59:40;4.50;;;2.47;;
44147;SDS011;29810;55.848;37.368;2023-01-29T09:02:44;5.87;;;2.72;;
44147;SDS011;29810;55.848;37.368;2023-01-29T09:05:47;4.15;;;2.87;;
44147;SDS011;29810;55.848;37.368;2023-01-29T09:08:48;4.40;;;3.25;;
44147;SDS011;29810;55.848;37.368;2023-01-29T09:11:50;5.10;;;3.17;;
44147;SDS011;29810;55.848;37.368;2023-01-29T09:14:51;5.80;;;2.92;;
44147;SDS011;29810;55.848;37.368;2023-01-29T09:17:54;4.00;;;2.67;;
44147;SDS011;29810;55.848;37.368;2023-01-29T09:20:58;3.90;;;2.60;;
44147;SDS011;29810;55.848;37.368;2023-01-29T09:24:00;3.75;;;2.28;;
44147;SDS011;29810;55.848;37.368;2023-01-29T09:27:01;4.75;;;2.70;;
44147;SDS011;29810;55.848;37.368;2023-01-29T09:30:04;3.83;;;2.40;;
44147;SDS011;29810;55.848;37.368;2023-01-29T09:33:06;4.35;;;2.53;;
44147;SDS011;29810;55.848;37.368;2023-01-29T09:36:08;3.17;;;2.15;;
44147;SDS011;29810;55.848;37.368;2023-01-29T09:39:10;3.72;;;2.17;;
44147;SDS011;29810;55.848;37.368;2023-01-29T09:42:14;3.70;;;2.25;;
44147;SDS011;29810;55.848;37.368;2023-01-29T09:45:28;3.80;;;2.22;;
44147;SDS011;29810;55.848;37.368;2023-01-29T09:48:32;3.83;;;2.30;;
44147;SDS011;29810;55.848;37.368;2023-01-29T09:51:39;4.95;;;2.62;;
44147;SDS011;29810;55.848;37.368;2023-01-29T09:57:49;3.75;;;2.55;;
44147;SDS011;29810;55.848;37.368;2023-01-29T10:20:53;4.47;;;2.50;;
44147;SDS011;29810;55.848;37.368;2023-01-29T10:27:12;4.32;;;3.00;;
44147;SDS011;29810;55.848;37.368;2023-01-29T10:33:38;8.32;;;2.90;;
44147;SDS011;29810;55.848;37.368;2023-01-29T10:39:46;5.68;;;3.22;;
44147;SDS011;29810;55.848;37.368;2023-01-29T10:42:55;5.82;;;3.58;;
44147;SDS011;29810;55.848;37.368;2023-01-29T10:46:17;4.90;;;3.33;;
44147;SDS011;29810;55.848;37.368;2023-01-29T10:56:25;4.75;;;3.10;;
44147;SDS011;29810;55.848;37.368;2023-01-29T11:02:55;5.03;;;3.20;;
44147;SDS011;29810;55.848;37.368;2023-01-29T11:09:33;5.75;;;3.17;;
44147;SDS011;29810;55.848;37.368;2023-01-29T11:12:40;4.40;;;3.10;;
44147;SDS011;29810;55.848;37.368;2023-01-29T11:15:44;5.57;;;3.53;;
44147;SDS011;29810;55.848;37.368;2023-01-29T11:21:59;5.50;;;3.30;;
44147;SDS011;29810;55.848;37.368;2023-01-29T11:28:53;6.10;;;3.22;;
44147;SDS011;29810;55.848;37.368;2023-01-29T11:31:49;7.00;;;3.40;;
44147;SDS011;29810;55.848;37.368;2023-01-29T11:34:58;5.12;;;2.97;;
44147;SDS011;29810;55.848;37.368;2023-01-29T11:38:07;5.00;;;3.53;;
44147;SDS011;29810;55.848;37.368;2023-01-29T11:41:18;6.07;;;3.47;;
44147;SDS011;29810;55.848;37.368;2023-01-29T11:44:34;6.03;;;3.60;;
44147;SDS011;29810;55.848;37.368;2023-01-29T11:47:42;5.72;;;3.60;;
44147;SDS011;29810;55.848;37.368;2023-01-29T11:50:51;6.37;;;3.40;;
44147;SDS011;29810;55.848;37.368;2023-01-29T11:53:58;5.32;;;3.42;;
44147;SDS011;29810;55.848;37.368;2023-01-29T11:57:02;5.43;;;3.60;;
44147;SDS011;29810;55.848;37.368;2023-01-29T12:00:05;6.10;;;3.90;;
44147;SDS011;29810;55.848;37.368;2023-01-29T12:03:23;7.00;;;4.30;;
44147;SDS011;29810;55.848;37.368;2023-01-29T12:06:43;6.85;;;4.35;;
44147;SDS011;29810;55.848;37.368;2023-01-29T12:09:54;6.53;;;3.97;;
44147;SDS011;29810;55.848;37.368;2023-01-29T12:13:33;6.85;;;3.90;;
44147;SDS011;29810;55.848;37.368;2023-01-29T12:19:50;6.68;;;4.03;;
44147;SDS011;29810;55.848;37.368;2023-01-29T12:26:30;6.30;;;4.27;;
44147;SDS011;29810;55.848;37.368;2023-01-29T12:33:18;6.78;;;4.03;;
44147;SDS011;29810;55.848;37.368;2023-01-29T12:36:55;6.97;;;4.25;;
44147;SDS011;29810;55.848;37.368;2023-01-29T12:40:13;6.20;;;3.92;;
44147;SDS011;29810;55.848;37.368;2023-01-29T12:43:26;7.20;;;4.47;;
44147;SDS011;29810;55.848;37.368;2023-01-29T12:46:55;7.25;;;4.80;;
44147;SDS011;29810;55.848;37.368;2023-01-29T12:50:19;7.28;;;4.50;;
44147;SDS011;29810;55.848;37.368;2023-01-29T12:53:34;10.32;;;4.20;;
44147;SDS011;29810;55.848;37.368;2023-01-29T12:56:51;7.90;;;4.53;;
44147;SDS011;29810;55.848;37.368;2023-01-29T13:00:00;5.55;;;3.97;;
44147;SDS011;29810;55.848;37.368;2023-01-29T13:06:30;8.57;;;4.53;;
44147;SDS011;29810;55.848;37.368;2023-01-29T13:09:38;7.60;;;4.32;;
44147;SDS011;29810;55.848;37.368;2023-01-29T13:15:59;5.90;;;3.90;;
44147;SDS011;29810;55.848;37.368;2023-01-29T13:22:31;7.15;;;4.45;;
44147;SDS011;29810;55.848;37.368;2023-01-29T13:25:36;6.62;;;4.25;;
44147;SDS011;29810;55.848;37.368;2023-01-29T13:28:38;6.95;;;4.45;;
44147;SDS011;29810;55.848;37.368;2023-01-29T13:31:39;7.97;;;4.90;;
44147;SDS011;29810;55.848;37.368;2023-01-29T13:34:48;7.55;;;4.43;;
44147;SDS011;29810;55.848;37.368;2023-01-29T13:37:52;6.85;;;4.47;;
44147;SDS011;29810;55.848;37.368;2023-01-29T13:41:00;6.40;;;4.40;;
44147;SDS011;29810;55.848;37.368;2023-01-29T13:44:05;8.18;;;4.28;;
44147;SDS011;29810;55.848;37.368;2023-01-29T13:47:33;7.30;;;4.55;;
44147;SDS011;29810;55.848;37.368;2023-01-29T13:50:39;7.10;;;4.43;;
44147;SDS011;29810;55.848;37.368;2023-01-29T13:53:57;7.32;;;4.78;;
44147;SDS011;29810;55.848;37.368;2023-01-29T13:57:02;7.12;;;4.62;;
44147;SDS011;29810;55.848;37.368;2023-01-29T14:00:04;7.07;;;4.57;;
44147;SDS011;29810;55.848;37.368;2023-01-29T14:06:33;6.55;;;4.35;;
44147;SDS011;29810;55.848;37.368;2023-01-29T14:12:41;9.32;;;4.87;;
44147;SDS011;29810;55.848;37.368;2023-01-29T14:15:44;7.70;;;5.07;;
44147;SDS011;29810;55.848;37.368;2023-01-29T14:19:14;10.25;;;4.60;;
44147;SDS011;29810;55.848;37.368;2023-01-29T14:22:22;8.15;;;4.82;;
44147;SDS011;29810;55.848;37.368;2023-01-29T14:25:31;9.32;;;5.35;;
44147;SDS011;29810;55.848;37.368;2023-01-29T14:28:37;10.55;;;5.55;;
44147;SDS011;29810;55.848;37.368;2023-01-29T14:31:43;9.52;;;5.97;;
44147;SDS011;29810;55.848;37.368;2023-01-29T14:34:51;9.43;;;5.40;;
44147;SDS011;29810;55.848;37.368;2023-01-29T14:38:04;9.68;;;5.30;;
44147;SDS011;29810;55.848;37.368;2023-01-29T14:50:53;11.20;;;5.78;;
44147;SDS011;29810;55.848;37.368;2023-01-29T14:54:42;9.38;;;5.82;;
44147;SDS011;29810;55.848;37.368;2023-01-29T14:57:52;8.40;;;5.43;;
44147;SDS011;29810;55.848;37.368;2023-01-29T15:00:58;9.15;;;5.18;;
44147;SDS011;29810;55.848;37.368;2023-01-29T15:04:28;9.88;;;6.35;;
44147;SDS011;29810;55.848;37.368;2023-01-29T15:11:36;10.20;;;6.18;;
44147;SDS011;29810;55.848;37.368;2023-01-29T15:14:58;9.95;;;6.15;;
44147;SDS011;29810;55.848;37.368;2023-01-29T15:18:08;10.32;;;6.32;;
44147;SDS011;29810;55.848;37.368;2023-01-29T15:21:23;9.98;;;6.20;;
44147;SDS011;29810;55.848;37.368;2023-01-29T15:24:25;8.90;;;5.85;;
44147;SDS011;29810;55.848;37.368;2023-01-29T15:27:27;9.90;;;6.45;;
44147;SDS011;29810;55.848;37.368;2023-01-29T15:30:33;9.80;;;6.45;;
44147;SDS011;29810;55.848;37.368;2023-01-29T15:33:37;10.40;;;6.82;;
44147;SDS011;29810;55.848;37.368;2023-01-29T15:36:46;10.05;;;6.53;;
44147;SDS011;29810;55.848;37.368;2023-01-29T15:39:49;9.60;;;6.80;;
44147;SDS011;29810;55.848;37.368;2023-01-29T15:42:51;10.82;;;6.35;;
44147;SDS011;29810;55.848;37.368;2023-01-29T15:45:58;9.50;;;6.20;;
44147;SDS011;29810;55.848;37.368;2023-01-29T15:49:06;9.77;;;6.05;;
44147;SDS011;29810;55.848;37.368;2023-01-29T15:52:16;9.90;;;6.70;;
44147;SDS011;29810;55.848;37.368;2023-01-29T15:55:23;10.50;;;6.70;;
44147;SDS011;29810;55.848;37.368;2023-01-29T15:58:29;17.20;;;6.65;;
44147;SDS011;29810;55.848;37.368;2023-01-29T16:01:32;9.60;;;6.18;;
44147;SDS011;29810;55.848;37.368;2023-01-29T16:04:34;9.23;;;5.68;;
44147;SDS011;29810;55.848;37.368;2023-01-29T16:07:38;12.18;;;6.93;;
44147;SDS011;29810;55.848;37.368;2023-01-29T16:10:43;11.23;;;5.95;;
44147;SDS011;29810;55.848;37.368;2023-01-29T16:13:48;13.43;;;6.10;;
44147;SDS011;29810;55.848;37.368;2023-01-29T16:16:52;9.35;;;6.12;;
44147;SDS011;29810;55.848;37.368;2023-01-29T16:20:04;10.13;;;6.18;;
44147;SDS011;29810;55.848;37.368;2023-01-29T16:23:17;10.05;;;6.12;;
44147;SDS011;29810;55.848;37.368;2023-01-29T16:26:44;11.15;;;6.43;;
44147;SDS011;29810;55.848;37.368;2023-01-29T16:29:51;10.07;;;6.35;;
44147;SDS011;29810;55.848;37.368;2023-01-29T16:32:59;11.40;;;6.10;;
44147;SDS011;29810;55.848;37.368;2023-01-29T16:36:16;10.55;;;6.00;;
44147;SDS011;29810;55.848;37.368;2023-01-29T16:39:27;10.25;;;5.82;;
44147;SDS011;29810;55.848;37.368;2023-01-29T16:42:33;8.93;;;5.65;;
44147;SDS011;29810;55.848;37.368;2023-01-29T16:45:38;11.07;;;7.10;;
44147;SDS011;29810;55.848;37.368;2023-01-29T16:48:42;11.25;;;6.07;;
44147;SDS011;29810;55.848;37.368;2023-01-29T16:51:46;8.68;;;5.82;;
44147;SDS011;29810;55.848;37.368;2023-01-29T16:54:51;9.65;;;5.68;;
44147;SDS011;29810;55.848;37.368;2023-01-29T16:58:02;9.95;;;5.97;;
44147;SDS011;29810;55.848;37.368;2023-01-29T17:01:18;10.25;;;6.15;;
44147;SDS011;29810;55.848;37.368;2023-01-29T17:04:27;12.10;;;6.77;;
44147;SDS011;29810;55.848;37.368;2023-01-29T17:07:32;10.20;;;6.40;;
44147;SDS011;29810;55.848;37.368;2023-01-29T17:10:36;11.27;;;6.25;;
44147;SDS011;29810;55.848;37.368;2023-01-29T17:13:38;10.80;;;6.32;;
44147;SDS011;29810;55.848;37.368;2023-01-29T17:16:55;9.57;;;6.07;;
44147;SDS011;29810;55.848;37.368;2023-01-29T17:20:13;10.20;;;5.90;;
44147;SDS011;29810;55.848;37.368;2023-01-29T17:23:17;9.07;;;5.55;;
44147;SDS011;29810;55.848;37.368;2023-01-29T17:26:25;11.00;;;5.85;;
44147;SDS011;29810;55.848;37.368;2023-01-29T17:29:28;10.18;;;5.82;;
44147;SDS011;29810;55.848;37.368;2023-01-29T17:32:30;8.75;;;5.60;;
44147;SDS011;29810;55.848;37.368;2023-01-29T17:35:35;9.07;;;5.87;;
44147;SDS011;29810;55.848;37.368;2023-01-29T17:38:37;8.85;;;5.50;;
44147;SDS011;29810;55.848;37.368;2023-01-29T17:41:39;9.00;;;5.07;;
44147;SDS011;29810;55.848;37.368;2023-01-29T17:44:45;9.23;;;5.60;;
44147;SDS011;29810;55.848;37.368;2023-01-29T17:47:47;8.18;;;5.35;;
44147;SDS011;29810;55.848;37.368;2023-01-29T17:50:49;8.57;;;5.37;;
44147;SDS011;29810;55.848;37.368;2023-01-29T17:53:53;7.40;;;5.07;;
44147;SDS011;29810;55.848;37.368;2023-01-29T17:56:58;10.15;;;5.57;;
44147;SDS011;29810;55.848;37.368;2023-01-29T17:59:59;10.10;;;6.00;;
44147;SDS011;29810;55.848;37.368;2023-01-29T18:03:07;8.43;;;5.53;;
44147;SDS011;29810;55.848;37.368;2023-01-29T18:06:25;8.15;;;5.50;;
44147;SDS011;29810;55.848;37.368;2023-01-29T18:09:31;8.25;;;5.65;;
44147;SDS011;29810;55.848;37.368;2023-01-29T18:12:33;9.18;;;5.90;;
44147;SDS011;29810;55.848;37.368;2023-01-29T18:15:35;8.27;;;5.12;;
44147;SDS011;29810;55.848;37.368;2023-01-29T18:18:37;9.07;;;5.53;;
44147;SDS011;29810;55.848;37.368;2023-01-29T18:21:39;8.25;;;5.25;;
44147;SDS011;29810;55.848;37.368;2023-01-29T18:24:41;8.93;;;5.18;;
44147;SDS011;29810;55.848;37.368;2023-01-29T18:27:43;7.20;;;4.85;;
44147;SDS011;29810;55.848;37.368;2023-01-29T18:30:46;7.80;;;4.85;;
44147;SDS011;29810;55.848;37.368;2023-01-29T18:33:47;7.05;;;4.37;;
44147;SDS011;29810;55.848;37.368;2023-01-29T18:36:49;7.32;;;4.65;;
44147;SDS011;29810;55.848;37.368;2023-01-29T18:39:51;7.55;;;4.93;;
44147;SDS011;29810;55.848;37.368;2023-01-29T18:42:55;6.80;;;4.03;;
44147;SDS011;29810;55.848;37.368;2023-01-29T18:45:59;7.53;;;4.22;;
44147;SDS011;29810;55.848;37.368;2023-01-29T18:49:04;8.02;;;5.00;;
44147;SDS011;29810;55.848;37.368;2023-01-29T18:52:05;6.95;;;4.60;;
44147;SDS011;29810;55.848;37.368;2023-01-29T18:55:08;8.32;;;5.10;;
44147;SDS011;29810;55.848;37.368;2023-01-29T18:58:09;7.03;;;4.95;;
44147;SDS011;29810;55.848;37.368;2023-01-29T19:01:11;8.60;;;5.20;;
44147;SDS011;29810;55.848;37.368;2023-01-29T19:04:14;8.02;;;4.87;;
44147;SDS011;29810;55.848;37.368;2023-01-29T19:07:16;7.32;;;4.78;;
44147;SDS011;29810;55.848;37.368;2023-01-29T19:10:17;8.80;;;5.07;;
44147;SDS011;29810;55.848;37.368;2023-01-29T19:13:19;6.55;;;4.50;;
44147;SDS011;29810;55.848;37.368;2023-01-29T19:16:20;7.45;;;5.00;;
44147;SDS011;29810;55.848;37.368;2023-01-29T19:19:22;8.20;;;5.18;;
44147;SDS011;29810;55.848;37.368;2023-01-29T19:22:27;9.02;;;6.10;;
44147;SDS011;29810;55.848;37.368;2023-01-29T19:25:29;7.85;;;5.50;;
44147;SDS011;29810;55.848;37.368;2023-01-29T19:28:31;8.02;;;5.50;;
44147;SDS011;29810;55.848;37.368;2023-01-29T19:31:33;9.40;;;5.60;;
44147;SDS011;29810;55.848;37.368;2023-01-29T19:34:35;9.10;;;6.35;;
44147;SDS011;29810;55.848;37.368;2023-01-29T19:37:37;9.18;;;6.18;;
44147;SDS011;29810;55.848;37.368;2023-01-29T19:40:39;9.18;;;5.87;;
44147;SDS011;29810;55.848;37.368;2023-01-29T19:43:40;9.80;;;6.00;;
44147;SDS011;29810;55.848;37.368;2023-01-29T19:46:43;9.68;;;6.70;;
44147;SDS011;29810;55.848;37.368;2023-01-29T19:52:58;9.20;;;6.15;;
44147;SDS011;29810;55.848;37.368;2023-01-29T19:56:04;9.48;;;6.30;;
44147;SDS011;29810;55.848;37.368;2023-01-29T19:59:08;8.98;;;6.03;;
44147;SDS011;29810;55.848;37.368;2023-01-29T20:02:11;10.48;;;6.10;;
44147;SDS011;29810;55.848;37.368;2023-01-29T20:05:13;9.23;;;6.12;;
44147;SDS011;29810;55.848;37.368;2023-01-29T20:08:17;8.65;;;5.72;;
44147;SDS011;29810;55.848;37.368;2023-01-29T20:11:19;8.85;;;6.12;;
44147;SDS011;29810;55.848;37.368;2023-01-29T20:14:24;9.93;;;5.93;;
44147;SDS011;29810;55.848;37.368;2023-01-29T20:17:26;10.35;;;6.12;;
44147;SDS011;29810;55.848;37.368;2023-01-29T20:20:28;10.40;;;6.00;;
44147;SDS011;29810;55.848;37.368;2023-01-29T20:23:30;11.90;;;6.47;;
44147;SDS011;29810;55.848;37.368;2023-01-29T20:26:31;11.20;;;6.32;;
44147;SDS011;29810;55.848;37.368;2023-01-29T20:29:33;9.60;;;6.20;;
44147;SDS011;29810;55.848;37.368;2023-01-29T20:32:35;11.38;;;6.40;;
44147;SDS011;29810;55.848;37.368;2023-01-29T20:35:38;9.30;;;6.43;;
44147;SDS011;29810;55.848;37.368;2023-01-29T20:38:40;10.00;;;6.53;;
44147;SDS011;29810;55.848;37.368;2023-01-29T20:41:42;10.25;;;6.18;;
44147;SDS011;29810;55.848;37.368;2023-01-29T20:44:43;11.00;;;6.72;;
44147;SDS011;29810;55.848;37.368;2023-01-29T20:47:46;10.30;;;6.68;;
44147;SDS011;29810;55.848;37.368;2023-01-29T20:50:48;10.43;;;6.40;;
44147;SDS011;29810;55.848;37.368;2023-01-29T20:53:50;10.65;;;6.72;;